createdAt,value
2023-01-26T00:01:24.659Z,14.30
2023-01-26T00:03:54.537Z,13.10
2023-01-26T00:06:27.476Z,13.23
2023-01-26T00:08:59.258Z,10.77
2023-01-26T00:11:33.204Z,13.33
2023-01-26T00:14:03.932Z,12.17
2023-01-26T00:16:33.664Z,12.97
2023-01-26T00:19:04.458Z,12.33
2023-01-26T00:21:34.214Z,13.63
2023-01-26T00:24:04.809Z,12.97
2023-01-26T00:26:37.459Z,12.87
2023-01-26T00:29:07.253Z,13.43
2023-01-26T00:31:37.334Z,12.57
2023-01-26T00:34:07.104Z,13.43
2023-01-26T00:36:37.815Z,12.27
2023-01-26T00:39:07.558Z,11.60
2023-01-26T00:41:52.290Z,12.80
2023-01-26T00:44:22.012Z,12.67
2023-01-26T00:46:51.768Z,13.00
2023-01-26T00:49:21.503Z,12.17
2023-01-26T00:51:51.271Z,12.73
2023-01-26T00:54:21.052Z,13.30
2023-01-26T00:56:53.421Z,12.63
2023-01-26T00:59:23.476Z,13.73
2023-01-26T01:01:53.958Z,13.37
2023-01-26T01:04:24.148Z,13.33
2023-01-26T01:06:54.123Z,12.03
2023-01-26T01:09:24.015Z,12.17
2023-01-26T01:11:56.435Z,12.80
2023-01-26T01:14:26.222Z,11.47
2023-01-26T01:16:56.012Z,11.90
2023-01-26T01:19:25.966Z,12.30
2023-01-26T01:21:55.829Z,12.10
2023-01-26T01:24:25.720Z,13.20
2023-01-26T01:26:58.119Z,13.17
2023-01-26T01:29:27.945Z,12.77
2023-01-26T01:31:57.867Z,12.17
2023-01-26T01:34:27.768Z,12.47
2023-01-26T01:36:57.603Z,11.30
2023-01-26T01:39:27.525Z,13.00
2023-01-26T01:41:59.891Z,12.33
2023-01-26T01:44:29.859Z,12.20
2023-01-26T01:47:03.801Z,13.07
2023-01-26T01:49:37.455Z,12.63
2023-01-26T01:52:12.944Z,13.07
2023-01-26T01:54:48.989Z,12.80
2023-01-26T01:57:28.677Z,13.50
2023-01-26T02:00:03.712Z,15.00
2023-01-26T02:02:33.614Z,13.13
2023-01-26T02:05:10.490Z,13.13
2023-01-26T02:07:42.342Z,12.43
2023-01-26T02:10:22.963Z,13.73
2023-01-26T02:13:00.845Z,13.33
2023-01-26T02:15:30.785Z,12.73
2023-01-26T02:18:04.004Z,11.63
2023-01-26T02:20:42.453Z,13.40
2023-01-26T02:23:26.736Z,14.27
2023-01-26T02:26:16.933Z,14.53
2023-01-26T02:28:48.986Z,13.13
2023-01-26T02:31:20.542Z,13.83
2023-01-26T02:33:50.461Z,13.53
2023-01-26T02:36:23.329Z,13.43
2023-01-26T02:39:01.831Z,14.10
2023-01-26T02:41:46.644Z,14.43
2023-01-26T02:44:17.240Z,14.20
2023-01-26T02:46:47.076Z,13.33
2023-01-26T02:49:29.248Z,12.67
2023-01-26T02:51:59.026Z,13.83
2023-01-26T02:54:41.185Z,13.10
2023-01-26T02:57:13.647Z,13.30
2023-01-26T02:59:43.421Z,13.53
2023-01-26T03:02:14.025Z,13.17
2023-01-26T03:04:44.373Z,13.83
2023-01-26T03:07:14.336Z,13.70
2023-01-26T03:09:44.170Z,13.57
2023-01-26T03:12:16.625Z,13.13
2023-01-26T03:14:46.403Z,13.37
2023-01-26T03:17:16.189Z,13.73
2023-01-26T03:19:58.390Z,13.03
2023-01-26T03:22:40.582Z,12.83
2023-01-26T03:25:24.782Z,13.30
2023-01-26T03:27:57.385Z,13.93
2023-01-26T03:30:27.337Z,11.90
2023-01-26T03:32:57.151Z,12.43
2023-01-26T03:35:26.944Z,13.17
2023-01-26T03:37:57.383Z,13.07
2023-01-26T03:40:39.715Z,13.10
2023-01-26T03:43:27.506Z,12.13
2023-01-26T03:46:09.712Z,12.57
2023-01-26T03:48:51.877Z,12.03
2023-01-26T03:51:34.050Z,13.40
2023-01-26T03:54:16.213Z,11.73
2023-01-26T03:56:46.316Z,11.80
2023-01-26T03:59:25.522Z,11.40
2023-01-26T04:02:07.703Z,17.10
2023-01-26T04:04:49.934Z,21.97
2023-01-26T04:07:32.174Z,20.83
2023-01-26T04:10:02.075Z,18.87
2023-01-26T04:12:31.896Z,19.53
2023-01-26T04:15:16.734Z,19.90
2023-01-26T04:17:58.908Z,17.33
2023-01-26T04:20:41.337Z,14.57
2023-01-26T04:23:19.758Z,9.53
2023-01-26T04:25:50.754Z,8.00
2023-01-26T04:28:20.537Z,6.43
2023-01-26T04:30:53.086Z,4.93
2023-01-26T04:33:23.014Z,4.77
2023-01-26T04:35:52.930Z,4.97
2023-01-26T04:38:22.779Z,6.10
2023-01-26T04:40:56.268Z,4.77
2023-01-26T04:43:26.470Z,5.10
2023-01-26T04:46:07.403Z,5.00
2023-01-26T04:48:37.777Z,5.47
2023-01-26T04:51:09.707Z,6.40
2023-01-26T04:53:39.516Z,5.30
2023-01-26T04:56:10.438Z,5.10
2023-01-26T04:58:40.606Z,4.93
2023-01-26T05:01:13.209Z,4.83
2023-01-26T05:03:43.050Z,6.00
2023-01-26T05:06:12.898Z,5.10
2023-01-26T05:08:42.939Z,5.43
2023-01-26T05:11:13.021Z,4.73
2023-01-26T05:13:42.788Z,5.60
2023-01-26T05:16:15.646Z,5.57
2023-01-26T05:18:45.688Z,5.47
2023-01-26T05:21:15.486Z,6.80
2023-01-26T05:23:45.281Z,5.60
2023-01-26T05:26:15.027Z,5.70
2023-01-26T05:28:44.795Z,4.30
2023-01-26T05:31:17.265Z,6.37
2023-01-26T05:33:47.096Z,5.73
2023-01-26T05:36:16.875Z,4.33
2023-01-26T05:38:47.375Z,3.77
2023-01-26T05:41:17.201Z,4.77
2023-01-26T05:43:46.983Z,6.33
2023-01-26T05:46:19.362Z,4.37
2023-01-26T05:48:49.234Z,3.80
2023-01-26T05:51:18.979Z,3.80
2023-01-26T05:53:48.728Z,4.53
2023-01-26T05:56:18.494Z,5.17
2023-01-26T05:58:48.295Z,4.97
2023-01-26T06:01:20.704Z,5.03
2023-01-26T06:03:50.463Z,4.73
2023-01-26T06:06:20.249Z,4.37
2023-01-26T06:08:50.065Z,5.37
2023-01-26T06:11:19.918Z,5.00
2023-01-26T06:13:49.695Z,3.83
2023-01-26T06:16:22.134Z,4.63
2023-01-26T06:18:52.055Z,4.97
2023-01-26T06:21:21.821Z,3.70
2023-01-26T06:23:51.691Z,4.70
2023-01-26T06:26:21.498Z,5.57
2023-01-26T06:28:51.387Z,5.43
2023-01-26T06:31:24.910Z,5.27
2023-01-26T06:33:55.246Z,3.87
2023-01-26T06:36:25.204Z,4.50
2023-01-26T06:38:57.159Z,4.43
2023-01-26T06:41:27.619Z,4.50
2023-01-26T06:43:57.486Z,4.87
2023-01-26T06:46:29.922Z,4.77
2023-01-26T06:48:59.890Z,4.03
2023-01-26T06:51:47.465Z,5.23
2023-01-26T06:54:18.016Z,4.53
2023-01-26T06:56:47.840Z,4.57
2023-01-26T06:59:17.675Z,4.57
2023-01-26T07:01:51.677Z,4.37
2023-01-26T07:04:21.499Z,4.93
2023-01-26T07:06:51.434Z,4.23
2023-01-26T07:09:21.202Z,5.37
2023-01-26T07:11:52.101Z,5.07
2023-01-26T07:14:21.927Z,4.17
2023-01-26T07:16:54.390Z,4.30
2023-01-26T07:19:24.351Z,4.13
2023-01-26T07:21:54.243Z,4.90
2023-01-26T07:24:24.024Z,4.30
2023-01-26T07:26:54.126Z,3.77
2023-01-26T07:29:23.954Z,4.73
2023-01-26T07:31:56.397Z,3.97
2023-01-26T07:34:26.177Z,4.57
2023-01-26T07:36:55.957Z,4.53
2023-01-26T07:39:25.762Z,4.33
2023-01-26T07:41:55.538Z,3.70
2023-01-26T07:44:25.329Z,3.97
2023-01-26T07:46:57.732Z,4.70
2023-01-26T07:49:27.608Z,4.37
2023-01-26T07:51:59.230Z,4.33
2023-01-26T07:54:29.487Z,3.57
2023-01-26T07:57:00.174Z,4.00
2023-01-26T07:59:30.497Z,4.67
2023-01-26T08:02:03.744Z,4.03
2023-01-26T08:04:33.902Z,4.37
2023-01-26T08:07:04.268Z,3.73
2023-01-26T08:09:34.268Z,3.80
2023-01-26T08:12:04.024Z,3.57
2023-01-26T08:14:46.148Z,4.00
2023-01-26T08:17:19.946Z,3.90
2023-01-26T08:19:49.821Z,4.77
2023-01-26T08:22:19.763Z,4.70
2023-01-26T08:24:49.701Z,3.63
2023-01-26T08:27:19.453Z,3.63
2023-01-26T08:29:49.346Z,4.27
2023-01-26T08:32:22.072Z,3.73
2023-01-26T08:34:52.015Z,3.83
2023-01-26T08:37:21.874Z,3.77
2023-01-26T08:39:51.880Z,4.37
2023-01-26T08:42:22.776Z,3.53
2023-01-26T08:44:52.680Z,4.13
2023-01-26T08:47:25.140Z,4.30
2023-01-26T08:49:55.016Z,3.77
2023-01-26T08:52:24.779Z,4.10
2023-01-26T08:54:54.591Z,3.80
2023-01-26T08:57:24.429Z,3.27
2023-01-26T08:59:54.248Z,3.20
2023-01-26T09:02:27.034Z,3.90
2023-01-26T09:04:56.934Z,3.87
2023-01-26T09:07:29.333Z,3.60
2023-01-26T09:09:59.247Z,3.93
2023-01-26T09:12:29.096Z,3.93
2023-01-26T09:14:59.154Z,4.13
2023-01-26T09:17:31.644Z,3.27
2023-01-26T09:20:01.546Z,3.40
2023-01-26T09:22:31.398Z,3.83
2023-01-26T09:25:01.430Z,4.00
2023-01-26T09:27:31.271Z,4.00
2023-01-26T09:30:01.090Z,3.57
2023-01-26T09:32:33.606Z,4.27
2023-01-26T09:35:03.425Z,3.63
2023-01-26T09:37:33.206Z,4.67
2023-01-26T09:40:03.322Z,3.27
2023-01-26T09:42:42.410Z,3.83
2023-01-26T09:45:25.544Z,3.67
2023-01-26T09:48:12.588Z,4.90
2023-01-26T09:50:51.355Z,3.33
2023-01-26T09:53:27.856Z,3.30
2023-01-26T09:55:58.700Z,4.10
2023-01-26T09:58:36.369Z,3.00
2023-01-26T10:01:07.858Z,3.63
2023-01-26T10:03:47.814Z,3.47
2023-01-26T10:06:25.852Z,5.00
2023-01-26T10:08:57.116Z,3.63
2023-01-26T10:11:32.302Z,3.47
2023-01-26T10:14:08.005Z,3.27
2023-01-26T10:16:37.918Z,3.43
2023-01-26T10:19:17.166Z,3.20
2023-01-26T10:21:50.484Z,4.17
2023-01-26T10:24:24.914Z,3.57
2023-01-26T10:26:59.579Z,3.20
2023-01-26T10:29:29.461Z,3.37
2023-01-26T10:31:59.225Z,3.60
2023-01-26T10:34:32.590Z,2.67
2023-01-26T10:37:17.334Z,3.60
2023-01-26T10:40:01.258Z,3.40
2023-01-26T10:42:33.337Z,2.53
2023-01-26T10:45:05.971Z,2.97
2023-01-26T10:47:35.944Z,3.33
2023-01-26T10:50:26.001Z,3.43
2023-01-26T10:53:06.793Z,3.00
2023-01-26T10:55:37.493Z,3.30
2023-01-26T10:58:07.338Z,3.03
2023-01-26T11:00:38.012Z,3.67
2023-01-26T11:03:13.602Z,3.83
2023-01-26T11:05:48.290Z,3.50
2023-01-26T11:08:38.940Z,3.93
2023-01-26T11:11:30.952Z,3.60
2023-01-26T11:14:18.783Z,3.60
2023-01-26T11:16:53.704Z,3.70
2023-01-26T11:19:41.657Z,3.43
2023-01-26T11:22:20.037Z,3.60
2023-01-26T11:24:59.950Z,3.00
2023-01-26T11:27:42.925Z,3.27
2023-01-26T11:30:39.840Z,3.57
2023-01-26T11:33:18.921Z,3.57
2023-01-26T11:35:57.597Z,3.37
2023-01-26T11:38:43.158Z,3.30
2023-01-26T11:41:27.438Z,3.30
2023-01-26T11:44:23.599Z,2.80
2023-01-26T11:47:04.465Z,3.33
2023-01-26T11:49:47.954Z,2.93
2023-01-26T11:52:24.791Z,2.50
2023-01-26T11:55:27.002Z,1.80
2023-01-26T11:58:09.345Z,2.67
2023-01-26T12:00:44.193Z,2.13
2023-01-26T12:03:23.684Z,2.87
2023-01-26T12:05:57.883Z,2.73
2023-01-26T12:08:38.644Z,2.40
2023-01-26T12:11:26.426Z,2.40
2023-01-26T12:14:06.717Z,1.90
2023-01-26T12:16:44.244Z,2.47
2023-01-26T12:19:20.880Z,2.20
2023-01-26T12:21:53.082Z,2.23
2023-01-26T12:25:01.019Z,3.03
2023-01-26T12:27:29.922Z,2.53
2023-01-26T12:30:07.710Z,3.30
2023-01-26T12:32:37.656Z,2.40
2023-01-26T12:35:08.398Z,2.77
2023-01-26T12:37:50.202Z,3.30
2023-01-26T12:40:31.497Z,2.67
2023-01-26T12:43:19.633Z,2.47
2023-01-26T12:45:53.449Z,2.43
2023-01-26T12:48:27.551Z,2.37
2023-01-26T12:51:04.174Z,2.13
2023-01-26T12:53:39.201Z,2.27
2023-01-26T12:56:16.532Z,2.13
2023-01-26T12:58:51.489Z,2.20
2023-01-26T13:01:24.534Z,2.50
2023-01-26T13:03:58.624Z,2.67
2023-01-26T13:06:30.225Z,2.47
2023-01-26T13:09:06.157Z,2.63
2023-01-26T13:11:50.516Z,3.33
2023-01-26T13:14:38.957Z,3.00
2023-01-26T13:17:38.792Z,3.00
2023-01-26T13:20:33.445Z,3.03
2023-01-26T13:23:03.402Z,2.33
2023-01-26T13:25:35.752Z,2.40
2023-01-26T13:28:07.196Z,2.37
2023-01-26T13:30:46.452Z,2.60
2023-01-26T13:33:24.257Z,2.13
2023-01-26T13:35:56.720Z,2.70
2023-01-26T13:38:36.380Z,1.80
2023-01-26T13:41:11.303Z,2.40
2023-01-26T13:43:45.529Z,2.50
2023-01-26T13:46:26.021Z,2.00
2023-01-26T13:48:57.637Z,2.33
2023-01-26T13:51:30.447Z,2.20
2023-01-26T13:54:04.427Z,2.33
2023-01-26T13:56:36.782Z,2.57
2023-01-26T13:59:09.655Z,3.40
2023-01-26T14:01:47.876Z,2.93
2023-01-26T14:04:21.565Z,2.97
2023-01-26T14:06:56.485Z,2.80
2023-01-26T14:09:28.888Z,3.00
2023-01-26T14:12:04.034Z,2.90
2023-01-26T14:14:37.147Z,2.83
2023-01-26T14:17:28.456Z,3.17
2023-01-26T14:20:00.048Z,3.30
2023-01-26T14:22:30.647Z,2.90
2023-01-26T14:25:00.533Z,2.87
2023-01-26T14:27:39.784Z,2.53
2023-01-26T14:30:27.932Z,3.30
2023-01-26T14:33:06.446Z,3.07
2023-01-26T14:35:36.359Z,3.53
2023-01-26T14:38:18.091Z,3.00
2023-01-26T14:40:48.540Z,3.03
2023-01-26T14:43:19.302Z,2.50
2023-01-26T14:45:55.041Z,3.40
2023-01-26T14:48:32.143Z,3.57
2023-01-26T14:51:03.429Z,3.37
2023-01-26T14:53:33.394Z,3.33
2023-01-26T14:56:03.321Z,3.43
2023-01-26T14:58:35.522Z,3.50
2023-01-26T15:01:06.087Z,2.90
2023-01-26T15:03:41.279Z,2.87
2023-01-26T15:06:23.995Z,6.50
2023-01-26T15:09:00.423Z,3.10
2023-01-26T15:11:45.006Z,3.40
2023-01-26T15:14:34.331Z,3.80
2023-01-26T15:17:04.536Z,3.70
2023-01-26T15:19:43.914Z,3.67
2023-01-26T15:22:26.702Z,3.17
2023-01-26T15:25:08.995Z,3.10
2023-01-26T15:27:39.924Z,3.43
2023-01-26T15:30:19.188Z,3.30
2023-01-26T15:32:49.045Z,2.90
2023-01-26T15:35:27.365Z,3.33
2023-01-26T15:38:05.019Z,3.37
2023-01-26T15:40:35.335Z,3.50
2023-01-26T15:43:18.402Z,3.17
2023-01-26T15:45:54.411Z,3.43
2023-01-26T15:48:25.679Z,2.90
2023-01-26T15:50:58.162Z,3.33
2023-01-26T15:53:28.594Z,3.20
2023-01-26T15:55:58.770Z,4.60
2023-01-26T15:58:28.936Z,3.20
2023-01-26T16:01:03.855Z,2.50
2023-01-26T16:03:33.794Z,3.03
2023-01-26T16:06:06.501Z,3.17
2023-01-26T16:08:36.442Z,3.17
2023-01-26T16:11:06.542Z,3.30
2023-01-26T16:13:36.818Z,4.10
2023-01-26T16:16:07.215Z,3.60
2023-01-26T16:18:37.055Z,3.07
2023-01-26T16:21:18.779Z,3.60
2023-01-26T16:23:49.172Z,4.50
2023-01-26T16:26:21.071Z,3.83
2023-01-26T16:28:50.854Z,4.20
2023-01-26T16:31:22.641Z,5.07
2023-01-26T16:33:52.991Z,3.50
2023-01-26T16:36:25.832Z,3.03
2023-01-26T16:38:55.960Z,3.30
2023-01-26T16:41:28.336Z,4.13
2023-01-26T16:44:00.038Z,3.80
2023-01-26T16:46:31.963Z,4.10
2023-01-26T16:49:01.877Z,3.73
2023-01-26T16:51:41.770Z,3.60
2023-01-26T16:54:11.949Z,3.90
2023-01-26T16:56:41.826Z,4.83
2023-01-26T16:59:11.721Z,3.40
2023-01-26T17:01:41.470Z,3.57
2023-01-26T17:04:13.386Z,4.30
2023-01-26T17:06:45.735Z,3.40
2023-01-26T17:09:15.644Z,3.53
2023-01-26T17:11:45.444Z,3.67
2023-01-26T17:14:15.631Z,3.23
2023-01-26T17:16:45.627Z,2.83
2023-01-26T17:19:15.546Z,3.50
2023-01-26T17:21:48.019Z,3.90
2023-01-26T17:24:17.923Z,3.37
2023-01-26T17:26:47.797Z,4.53
2023-01-26T17:29:17.661Z,3.50
2023-01-26T17:31:47.535Z,3.57
2023-01-26T17:34:17.432Z,3.73
2023-01-26T17:36:50.010Z,3.07
2023-01-26T17:39:20.378Z,3.40
2023-01-26T17:41:50.281Z,3.70
2023-01-26T17:44:21.440Z,4.57
2023-01-26T17:46:51.463Z,3.50
2023-01-26T17:49:21.596Z,2.77
2023-01-26T17:51:54.276Z,3.60
2023-01-26T17:54:24.289Z,3.70
2023-01-26T17:56:55.054Z,3.53
2023-01-26T17:59:25.482Z,3.60
2023-01-26T18:01:55.895Z,3.17
2023-01-26T18:04:26.271Z,3.20
2023-01-26T18:06:58.759Z,3.03
2023-01-26T18:09:28.672Z,3.33
2023-01-26T18:11:58.580Z,2.77
2023-01-26T18:14:28.437Z,2.77
2023-01-26T18:16:58.320Z,3.27
2023-01-26T18:19:28.232Z,3.30
2023-01-26T18:22:00.649Z,3.30
2023-01-26T18:24:30.595Z,3.00
2023-01-26T18:27:00.449Z,2.90
2023-01-26T18:29:30.240Z,2.73
2023-01-26T18:32:00.150Z,2.87
2023-01-26T18:34:30.015Z,3.43
2023-01-26T18:37:02.492Z,3.00
2023-01-26T18:39:33.604Z,3.60
2023-01-26T18:42:03.380Z,3.40
2023-01-26T18:44:33.462Z,2.80
2023-01-26T18:47:03.327Z,3.03
2023-01-26T18:49:33.108Z,3.00
2023-01-26T18:52:05.840Z,2.77
2023-01-26T18:54:35.804Z,3.40
2023-01-26T18:57:05.600Z,3.33
2023-01-26T18:59:35.419Z,3.13
2023-01-26T19:02:05.483Z,3.20
2023-01-26T19:04:35.975Z,2.67
2023-01-26T19:07:09.747Z,3.00
2023-01-26T19:09:39.625Z,4.37
2023-01-26T19:12:10.542Z,3.67
2023-01-26T19:14:40.487Z,3.07
2023-01-26T19:17:10.314Z,3.20
2023-01-26T19:19:42.047Z,3.47
2023-01-26T19:22:14.511Z,3.23
2023-01-26T19:24:45.023Z,3.50
2023-01-26T19:27:14.918Z,3.40
2023-01-26T19:29:44.725Z,4.53
2023-01-26T19:32:14.477Z,3.60
2023-01-26T19:34:44.244Z,4.07
2023-01-26T19:37:16.652Z,3.40
2023-01-26T19:39:46.733Z,3.33
2023-01-26T19:42:16.502Z,2.87
2023-01-26T19:44:46.286Z,2.97
2023-01-26T19:47:16.031Z,3.17
2023-01-26T19:49:45.814Z,3.47
2023-01-26T19:52:18.219Z,2.93
2023-01-26T19:54:48.017Z,3.00
2023-01-26T19:57:17.778Z,3.07
2023-01-26T19:59:47.548Z,3.13
2023-01-26T20:02:17.414Z,3.10
2023-01-26T20:04:47.490Z,3.17
2023-01-26T20:07:20.135Z,3.70
2023-01-26T20:09:51.042Z,3.90
2023-01-26T20:12:20.945Z,3.80
2023-01-26T20:14:51.804Z,3.03
2023-01-26T20:17:21.981Z,3.00
2023-01-26T20:19:51.761Z,2.50
2023-01-26T20:22:24.269Z,3.70
2023-01-26T20:24:55.647Z,3.73
2023-01-26T20:27:25.554Z,3.70
2023-01-26T20:29:55.353Z,3.20
2023-01-26T20:32:25.231Z,3.57
2023-01-26T20:34:55.613Z,3.37
2023-01-26T20:37:28.524Z,3.53
2023-01-26T20:39:58.607Z,2.60
2023-01-26T20:42:28.518Z,3.20
2023-01-26T20:44:59.198Z,3.10
2023-01-26T20:47:29.282Z,2.80
2023-01-26T20:50:00.271Z,4.23
2023-01-26T20:52:32.662Z,3.20
2023-01-26T20:55:02.436Z,2.80
2023-01-26T20:57:32.560Z,2.60
2023-01-26T21:00:02.376Z,3.50
2023-01-26T21:02:32.196Z,3.90
2023-01-26T21:05:02.066Z,3.30
2023-01-26T21:07:34.580Z,3.37
2023-01-26T21:10:04.364Z,3.00
2023-01-26T21:12:35.274Z,4.93
2023-01-26T21:15:05.167Z,5.63
2023-01-26T21:17:34.974Z,3.97
2023-01-26T21:20:05.166Z,3.20
2023-01-26T21:22:37.570Z,3.20
2023-01-26T21:25:08.453Z,3.70
2023-01-26T21:27:38.257Z,3.10
2023-01-26T21:30:09.679Z,3.93
2023-01-26T21:32:39.501Z,3.47
2023-01-26T21:35:10.598Z,9.93
2023-01-26T21:37:43.267Z,3.97
2023-01-26T21:40:14.586Z,3.90
2023-01-26T21:42:44.459Z,5.17
2023-01-26T21:45:26.811Z,5.80
2023-01-26T21:48:08.970Z,4.37
2023-01-26T21:50:51.148Z,5.93
2023-01-26T21:53:25.115Z,4.40
2023-01-26T21:55:55.010Z,3.93
2023-01-26T21:58:37.184Z,4.50
2023-01-26T22:01:11.022Z,5.07
2023-01-26T22:03:40.911Z,4.60
2023-01-26T22:06:10.853Z,4.67
2023-01-26T22:08:43.372Z,4.63
2023-01-26T22:11:14.703Z,5.03
2023-01-26T22:13:45.059Z,4.77
2023-01-26T22:16:15.127Z,4.90
2023-01-26T22:18:45.765Z,4.83
2023-01-26T22:21:16.171Z,6.13
2023-01-26T22:23:49.061Z,5.47
2023-01-26T22:26:20.727Z,5.70
2023-01-26T22:28:53.635Z,5.50
2023-01-26T22:31:27.174Z,5.90
2023-01-26T22:33:58.082Z,6.60
2023-01-26T22:36:28.733Z,7.40
2023-01-26T22:39:02.368Z,6.83
2023-01-26T22:41:32.562Z,6.83
2023-01-26T22:44:03.791Z,6.93
2023-01-26T22:46:34.642Z,7.37
2023-01-26T22:49:04.825Z,7.97
2023-01-26T22:51:37.425Z,7.83
2023-01-26T22:54:10.533Z,8.37
2023-01-26T22:56:40.310Z,7.90
2023-01-26T22:59:10.142Z,8.33
2023-01-26T23:01:40.136Z,8.53
2023-01-26T23:04:10.389Z,8.70
2023-01-26T23:06:40.086Z,8.27
2023-01-26T23:09:12.410Z,8.37
2023-01-26T23:11:42.146Z,7.17
2023-01-26T23:14:11.891Z,7.97
2023-01-26T23:16:41.626Z,7.30
2023-01-26T23:19:11.683Z,7.47
2023-01-26T23:21:41.993Z,7.30
2023-01-26T23:24:14.767Z,7.70
2023-01-26T23:26:44.549Z,8.03
2023-01-26T23:29:14.231Z,7.03
2023-01-26T23:31:44.013Z,6.97
2023-01-26T23:34:13.779Z,8.83
2023-01-26T23:36:43.497Z,7.73
2023-01-26T23:39:15.820Z,6.90
2023-01-26T23:41:45.707Z,7.47
2023-01-26T23:44:15.657Z,6.57
2023-01-26T23:46:46.286Z,6.60
2023-01-26T23:49:16.053Z,6.33
2023-01-26T23:51:45.805Z,6.53
2023-01-26T23:54:18.186Z,7.70
2023-01-26T23:56:47.956Z,6.30
2023-01-26T23:59:17.902Z,6.93
